sensor_id;sensor_type;location;lat;lon;timestamp;P1;durP1;ratioP1;P2;durP2;ratioP2
80910;SDS011;70359;51.420;7.032;2024-03-25T00:00:19;3.8;;;2;;
80910;SDS011;70359;51.420;7.032;2024-03-25T00:02:43;3.8;;;2;;
80910;SDS011;70359;51.420;7.032;2024-03-25T00:05:09;3.8;;;2.3;;
80910;SDS011;70359;51.420;7.032;2024-03-25T00:07:37;3.8;;;2.3;;
80910;SDS011;70359;51.420;7.032;2024-03-25T00:09:58;3.6;;;2.2;;
80910;SDS011;70359;51.420;7.032;2024-03-25T00:12:23;3.6;;;2.2;;
80910;SDS011;70359;51.420;7.032;2024-03-25T00:14:48;3.6;;;2.2;;
80910;SDS011;70359;51.420;7.032;2024-03-25T00:17:13;13.2;;;2.9;;
80910;SDS011;70359;51.420;7.032;2024-03-25T00:19:38;13.2;;;2.9;;
80910;SDS011;70359;51.420;7.032;2024-03-25T00:22:03;12.5;;;3.9;;
80910;SDS011;70359;51.420;7.032;2024-03-25T00:24:28;12.5;;;3.9;;
80910;SDS011;70359;51.420;7.032;2024-03-25T00:26:53;8.9;;;4.1;;
80910;SDS011;70359;51.420;7.032;2024-03-25T00:29:22;8.9;;;4.1;;
80910;SDS011;70359;51.420;7.032;2024-03-25T00:31:43;7.2;;;4.4;;
80910;SDS011;70359;51.420;7.032;2024-03-25T00:34:08;7.2;;;4.4;;
80910;SDS011;70359;51.420;7.032;2024-03-25T00:36:33;7.6;;;5.6;;
80910;SDS011;70359;51.420;7.032;2024-03-25T00:38:58;7.6;;;5.6;;
80910;SDS011;70359;51.420;7.032;2024-03-25T00:41:23;9.1;;;6.1;;
80910;SDS011;70359;51.420;7.032;2024-03-25T00:43:48;9.1;;;6.1;;
80910;SDS011;70359;51.420;7.032;2024-03-25T00:46:13;7.6;;;6.2;;
80910;SDS011;70359;51.420;7.032;2024-03-25T00:48:39;7.6;;;6.2;;
80910;SDS011;70359;51.420;7.032;2024-03-25T00:51:04;8.7;;;6.3;;
80910;SDS011;70359;51.420;7.032;2024-03-25T00:53:32;8.7;;;6.3;;
80910;SDS011;70359;51.420;7.032;2024-03-25T00:55:54;12;;;7.1;;
80910;SDS011;70359;51.420;7.032;2024-03-25T00:58:19;12;;;7.1;;
80910;SDS011;70359;51.420;7.032;2024-03-25T01:00:44;11.2;;;6.9;;
80910;SDS011;70359;51.420;7.032;2024-03-25T01:03:09;11.2;;;6.9;;
80910;SDS011;70359;51.420;7.032;2024-03-25T01:05:34;15.3;;;7;;
80910;SDS011;70359;51.420;7.032;2024-03-25T01:07:59;15.3;;;7;;
80910;SDS011;70359;51.420;7.032;2024-03-25T01:10:28;7.7;;;5.1;;
80910;SDS011;70359;51.420;7.032;2024-03-25T01:12:49;7.7;;;5.1;;
80910;SDS011;70359;51.420;7.032;2024-03-25T01:15:18;12;;;5.4;;
80910;SDS011;70359;51.420;7.032;2024-03-25T01:17:39;12;;;5.4;;
80910;SDS011;70359;51.420;7.032;2024-03-25T01:20:04;4.9;;;3.4;;
80910;SDS011;70359;51.420;7.032;2024-03-25T01:22:29;4.9;;;3.4;;
80910;SDS011;70359;51.420;7.032;2024-03-25T01:24:54;8.4;;;3.8;;
80910;SDS011;70359;51.420;7.032;2024-03-25T01:27:19;8.4;;;3.8;;
80910;SDS011;70359;51.420;7.032;2024-03-25T01:29:44;8.4;;;3.8;;
80910;SDS011;70359;51.420;7.032;2024-03-25T01:32:09;12.2;;;2.9;;
80910;SDS011;70359;51.420;7.032;2024-03-25T01:34:34;12.2;;;2.9;;
80910;SDS011;70359;51.420;7.032;2024-03-25T01:36:59;7.5;;;2.7;;
80910;SDS011;70359;51.420;7.032;2024-03-25T01:39:28;7.5;;;2.7;;
80910;SDS011;70359;51.420;7.032;2024-03-25T01:41:53;6.6;;;3;;
80910;SDS011;70359;51.420;7.032;2024-03-25T01:44:14;6.6;;;3;;
80910;SDS011;70359;51.420;7.032;2024-03-25T01:46:39;7.1;;;2.6;;
80910;SDS011;70359;51.420;7.032;2024-03-25T01:49:04;7.1;;;2.6;;
80910;SDS011;70359;51.420;7.032;2024-03-25T01:51:29;8.4;;;2.8;;
80910;SDS011;70359;51.420;7.032;2024-03-25T01:53:54;8.4;;;2.8;;
80910;SDS011;70359;51.420;7.032;2024-03-25T01:56:20;4;;;2.2;;
80910;SDS011;70359;51.420;7.032;2024-03-25T01:58:44;4;;;2.2;;
80910;SDS011;70359;51.420;7.032;2024-03-25T02:01:09;4.4;;;2.4;;
80910;SDS011;70359;51.420;7.032;2024-03-25T02:03:34;4.4;;;2.4;;
80910;SDS011;70359;51.420;7.032;2024-03-25T02:06:00;10.9;;;2.8;;
80910;SDS011;70359;51.420;7.032;2024-03-25T02:08:29;10.9;;;2.8;;
80910;SDS011;70359;51.420;7.032;2024-03-25T02:10:53;3.5;;;1.8;;
80910;SDS011;70359;51.420;7.032;2024-03-25T02:13:14;3.5;;;1.8;;
80910;SDS011;70359;51.420;7.032;2024-03-25T02:15:44;7.3;;;2.5;;
80910;SDS011;70359;51.420;7.032;2024-03-25T02:18:04;7.3;;;2.5;;
80910;SDS011;70359;51.420;7.032;2024-03-25T02:20:33;12;;;3.3;;
80910;SDS011;70359;51.420;7.032;2024-03-25T02:22:54;12;;;3.3;;
80910;SDS011;70359;51.420;7.032;2024-03-25T02:25:19;3.3;;;2.3;;
80910;SDS011;70359;51.420;7.032;2024-03-25T02:27:44;3.3;;;2.3;;
80910;SDS011;70359;51.420;7.032;2024-03-25T02:30:10;6.9;;;2.5;;
80910;SDS011;70359;51.420;7.032;2024-03-25T02:32:34;6.9;;;2.5;;
80910;SDS011;70359;51.420;7.032;2024-03-25T02:34:59;3.7;;;2.4;;
80910;SDS011;70359;51.420;7.032;2024-03-25T02:37:24;3.7;;;2.4;;
80910;SDS011;70359;51.420;7.032;2024-03-25T02:39:53;3.7;;;2.4;;
80910;SDS011;70359;51.420;7.032;2024-03-25T02:42:18;3.1;;;2.1;;
80910;SDS011;70359;51.420;7.032;2024-03-25T02:44:43;3.1;;;2.1;;
80910;SDS011;70359;51.420;7.032;2024-03-25T02:47:04;5.8;;;2.4;;
80910;SDS011;70359;51.420;7.032;2024-03-25T02:49:29;5.8;;;2.4;;
80910;SDS011;70359;51.420;7.032;2024-03-25T02:51:54;5.8;;;2.5;;
80910;SDS011;70359;51.420;7.032;2024-03-25T02:54:19;5.8;;;2.5;;
80910;SDS011;70359;51.420;7.032;2024-03-25T02:56:44;8.8;;;2.7;;
80910;SDS011;70359;51.420;7.032;2024-03-25T02:59:09;8.8;;;2.7;;
80910;SDS011;70359;51.420;7.032;2024-03-25T03:01:38;3.2;;;2.4;;
80910;SDS011;70359;51.420;7.032;2024-03-25T03:03:59;3.2;;;2.4;;
80910;SDS011;70359;51.420;7.032;2024-03-25T03:06:28;5.8;;;2.7;;
80910;SDS011;70359;51.420;7.032;2024-03-25T03:08:53;5.8;;;2.7;;
80910;SDS011;70359;51.420;7.032;2024-03-25T03:11:14;4.3;;;2.7;;
80910;SDS011;70359;51.420;7.032;2024-03-25T03:13:39;4.3;;;2.7;;
80910;SDS011;70359;51.420;7.032;2024-03-25T03:16:04;5.3;;;2.4;;
80910;SDS011;70359;51.420;7.032;2024-03-25T03:18:29;5.3;;;2.4;;
80910;SDS011;70359;51.420;7.032;2024-03-25T03:20:54;3.5;;;2.5;;
80910;SDS011;70359;51.420;7.032;2024-03-25T03:23:19;3.5;;;2.5;;
80910;SDS011;70359;51.420;7.032;2024-03-25T03:25:48;4.8;;;3;;
80910;SDS011;70359;51.420;7.032;2024-03-25T03:28:09;4.8;;;3;;
80910;SDS011;70359;51.420;7.032;2024-03-25T03:30:34;8;;;3.2;;
80910;SDS011;70359;51.420;7.032;2024-03-25T03:32:59;8;;;3.2;;
80910;SDS011;70359;51.420;7.032;2024-03-25T03:35:24;8.6;;;3;;
80910;SDS011;70359;51.420;7.032;2024-03-25T03:37:49;8.6;;;3;;
80910;SDS011;70359;51.420;7.032;2024-03-25T03:40:14;4.4;;;3;;
80910;SDS011;70359;51.420;7.032;2024-03-25T03:42:39;4.4;;;3;;
80910;SDS011;70359;51.420;7.032;2024-03-25T03:45:05;5.2;;;2.6;;
80910;SDS011;70359;51.420;7.032;2024-03-25T03:47:29;5.2;;;2.6;;
80910;SDS011;70359;51.420;7.032;2024-03-25T03:49:54;4;;;2.8;;
80910;SDS011;70359;51.420;7.032;2024-03-25T03:52:19;4;;;2.8;;
80910;SDS011;70359;51.420;7.032;2024-03-25T03:54:44;4;;;2.8;;
80910;SDS011;70359;51.420;7.032;2024-03-25T03:57:09;2.9;;;2.2;;
80910;SDS011;70359;51.420;7.032;2024-03-25T03:59:38;2.9;;;2.2;;
80910;SDS011;70359;51.420;7.032;2024-03-25T04:01:59;4.6;;;2.5;;
80910;SDS011;70359;51.420;7.032;2024-03-25T04:04:25;4.6;;;2.5;;
80910;SDS011;70359;51.420;7.032;2024-03-25T04:06:49;6;;;2.9;;
80910;SDS011;70359;51.420;7.032;2024-03-25T04:09:14;6;;;2.9;;
80910;SDS011;70359;51.420;7.032;2024-03-25T04:11:39;5.3;;;2.9;;
80910;SDS011;70359;51.420;7.032;2024-03-25T04:14:04;5.3;;;2.9;;
80910;SDS011;70359;51.420;7.032;2024-03-25T04:16:29;6;;;2.9;;
80910;SDS011;70359;51.420;7.032;2024-03-25T04:18:54;6;;;2.9;;
80910;SDS011;70359;51.420;7.032;2024-03-25T04:21:19;7.2;;;3.2;;
80910;SDS011;70359;51.420;7.032;2024-03-25T04:23:48;7.2;;;3.2;;
80910;SDS011;70359;51.420;7.032;2024-03-25T04:26:13;6.3;;;3;;
80910;SDS011;70359;51.420;7.032;2024-03-25T04:28:34;6.3;;;3;;
80910;SDS011;70359;51.420;7.032;2024-03-25T04:31:03;5.5;;;3.2;;
80910;SDS011;70359;51.420;7.032;2024-03-25T04:33:28;5.5;;;3.2;;
80910;SDS011;70359;51.420;7.032;2024-03-25T04:35:49;3.9;;;3;;
80910;SDS011;70359;51.420;7.032;2024-03-25T04:38:15;3.9;;;3;;
80910;SDS011;70359;51.420;7.032;2024-03-25T04:40:39;6.8;;;2.8;;
80910;SDS011;70359;51.420;7.032;2024-03-25T04:43:04;6.8;;;2.8;;
80910;SDS011;70359;51.420;7.032;2024-03-25T04:45:29;7.2;;;3.3;;
80910;SDS011;70359;51.420;7.032;2024-03-25T04:47:54;7.2;;;3.3;;
80910;SDS011;70359;51.420;7.032;2024-03-25T04:50:19;6.8;;;3.1;;
80910;SDS011;70359;51.420;7.032;2024-03-25T04:52:44;6.8;;;3.1;;
80910;SDS011;70359;51.420;7.032;2024-03-25T04:55:09;5.2;;;2.4;;
80910;SDS011;70359;51.420;7.032;2024-03-25T04:57:34;5.2;;;2.4;;
80910;SDS011;70359;51.420;7.032;2024-03-25T04:59:59;5.9;;;3.4;;
80910;SDS011;70359;51.420;7.032;2024-03-25T05:02:24;5.9;;;3.4;;
80910;SDS011;70359;51.420;7.032;2024-03-25T05:04:53;5.9;;;3.4;;
80910;SDS011;70359;51.420;7.032;2024-03-25T05:07:14;8.2;;;3.4;;
80910;SDS011;70359;51.420;7.032;2024-03-25T05:09:39;8.2;;;3.4;;
80910;SDS011;70359;51.420;7.032;2024-03-25T05:12:04;3.9;;;2.8;;
80910;SDS011;70359;51.420;7.032;2024-03-25T05:14:29;3.9;;;2.8;;
80910;SDS011;70359;51.420;7.032;2024-03-25T05:16:54;5.7;;;2.7;;
80910;SDS011;70359;51.420;7.032;2024-03-25T05:19:19;5.7;;;2.7;;
80910;SDS011;70359;51.420;7.032;2024-03-25T05:21:48;5.8;;;3.2;;
80910;SDS011;70359;51.420;7.032;2024-03-25T05:24:13;5.8;;;3.2;;
80910;SDS011;70359;51.420;7.032;2024-03-25T05:26:34;4.7;;;2.8;;
80910;SDS011;70359;51.420;7.032;2024-03-25T05:28:59;4.7;;;2.8;;
80910;SDS011;70359;51.420;7.032;2024-03-25T05:31:24;4.6;;;2.7;;
80910;SDS011;70359;51.420;7.032;2024-03-25T05:33:49;4.6;;;2.7;;
80910;SDS011;70359;51.420;7.032;2024-03-25T05:36:14;3.6;;;2.9;;
80910;SDS011;70359;51.420;7.032;2024-03-25T05:38:39;3.6;;;2.9;;
80910;SDS011;70359;51.420;7.032;2024-03-25T05:41:04;4.4;;;3;;
80910;SDS011;70359;51.420;7.032;2024-03-25T05:43:29;4.4;;;3;;
80910;SDS011;70359;51.420;7.032;2024-03-25T05:45:54;6.3;;;3.1;;
80910;SDS011;70359;51.420;7.032;2024-03-25T05:48:19;6.3;;;3.1;;
80910;SDS011;70359;51.420;7.032;2024-03-25T05:50:48;4.6;;;2.8;;
80910;SDS011;70359;51.420;7.032;2024-03-25T05:53:09;4.6;;;2.8;;
80910;SDS011;70359;51.420;7.032;2024-03-25T05:55:34;4.3;;;3;;
80910;SDS011;70359;51.420;7.032;2024-03-25T05:57:59;4.3;;;3;;
80910;SDS011;70359;51.420;7.032;2024-03-25T06:00:24;5.3;;;3.2;;
80910;SDS011;70359;51.420;7.032;2024-03-25T06:02:49;5.3;;;3.2;;
80910;SDS011;70359;51.420;7.032;2024-03-25T06:05:14;4.7;;;2.9;;
80910;SDS011;70359;51.420;7.032;2024-03-25T06:07:39;4.7;;;2.9;;
80910;SDS011;70359;51.420;7.032;2024-03-25T06:10:05;4.1;;;2.8;;
80910;SDS011;70359;51.420;7.032;2024-03-25T06:12:29;4.1;;;2.8;;
80910;SDS011;70359;51.420;7.032;2024-03-25T06:14:54;3.6;;;2.4;;
80910;SDS011;70359;51.420;7.032;2024-03-25T06:17:19;3.6;;;2.4;;
80910;SDS011;70359;51.420;7.032;2024-03-25T06:19:44;3.6;;;2.4;;
80910;SDS011;70359;51.420;7.032;2024-03-25T06:22:09;4.4;;;3;;
80910;SDS011;70359;51.420;7.032;2024-03-25T06:24:34;4.4;;;3;;
80910;SDS011;70359;51.420;7.032;2024-03-25T06:26:59;5.8;;;3.4;;
80910;SDS011;70359;51.420;7.032;2024-03-25T06:29:24;5.8;;;3.4;;
80910;SDS011;70359;51.420;7.032;2024-03-25T06:31:49;4.8;;;3.2;;
80910;SDS011;70359;51.420;7.032;2024-03-25T06:34:14;4.8;;;3.2;;
80910;SDS011;70359;51.420;7.032;2024-03-25T06:36:39;6.2;;;3.2;;
80910;SDS011;70359;51.420;7.032;2024-03-25T06:39:04;6.2;;;3.2;;
80910;SDS011;70359;51.420;7.032;2024-03-25T06:41:29;6.3;;;2.8;;
80910;SDS011;70359;51.420;7.032;2024-03-25T06:43:54;6.3;;;2.8;;
80910;SDS011;70359;51.420;7.032;2024-03-25T06:46:19;5.5;;;3.1;;
80910;SDS011;70359;51.420;7.032;2024-03-25T06:48:48;5.5;;;3.1;;
80910;SDS011;70359;51.420;7.032;2024-03-25T06:51:13;5.6;;;3.3;;
80910;SDS011;70359;51.420;7.032;2024-03-25T06:53:38;5.6;;;3.3;;
80910;SDS011;70359;51.420;7.032;2024-03-25T06:56:00;6.1;;;3.2;;
80910;SDS011;70359;51.420;7.032;2024-03-25T06:58:25;6.1;;;3.2;;
80910;SDS011;70359;51.420;7.032;2024-03-25T07:00:50;4.7;;;2.8;;
80910;SDS011;70359;51.420;7.032;2024-03-25T07:03:14;4.7;;;2.8;;
80910;SDS011;70359;51.420;7.032;2024-03-25T07:05:39;5.3;;;3.6;;
80910;SDS011;70359;51.420;7.032;2024-03-25T07:08:05;5.3;;;3.6;;
80910;SDS011;70359;51.420;7.032;2024-03-25T07:10:29;8.3;;;3.4;;
80910;SDS011;70359;51.420;7.032;2024-03-25T07:12:54;8.3;;;3.4;;
80910;SDS011;70359;51.420;7.032;2024-03-25T07:15:19;5;;;3.1;;
80910;SDS011;70359;51.420;7.032;2024-03-25T07:17:44;5;;;3.1;;
80910;SDS011;70359;51.420;7.032;2024-03-25T07:20:10;5.2;;;2.9;;
80910;SDS011;70359;51.420;7.032;2024-03-25T07:22:34;5.2;;;2.9;;
80910;SDS011;70359;51.420;7.032;2024-03-25T07:24:59;5.4;;;3.3;;
80910;SDS011;70359;51.420;7.032;2024-03-25T07:27:24;5.4;;;3.3;;
80910;SDS011;70359;51.420;7.032;2024-03-25T07:29:49;5.4;;;3.3;;
80910;SDS011;70359;51.420;7.032;2024-03-25T07:32:14;7.7;;;3.8;;
80910;SDS011;70359;51.420;7.032;2024-03-25T07:34:39;7.7;;;3.8;;
80910;SDS011;70359;51.420;7.032;2024-03-25T07:37:04;4.3;;;2.9;;
80910;SDS011;70359;51.420;7.032;2024-03-25T07:39:29;4.3;;;2.9;;
80910;SDS011;70359;51.420;7.032;2024-03-25T07:41:54;6.2;;;3;;
80910;SDS011;70359;51.420;7.032;2024-03-25T07:44:19;6.2;;;3;;
80910;SDS011;70359;51.420;7.032;2024-03-25T07:46:44;7.4;;;3.1;;
80910;SDS011;70359;51.420;7.032;2024-03-25T07:49:09;7.4;;;3.1;;
80910;SDS011;70359;51.420;7.032;2024-03-25T07:51:34;10.7;;;3.6;;
80910;SDS011;70359;51.420;7.032;2024-03-25T07:53:59;10.7;;;3.6;;
80910;SDS011;70359;51.420;7.032;2024-03-25T07:56:24;5.6;;;2.8;;
80910;SDS011;70359;51.420;7.032;2024-03-25T07:58:49;5.6;;;2.8;;
80910;SDS011;70359;51.420;7.032;2024-03-25T08:01:14;4.2;;;2.9;;
80910;SDS011;70359;51.420;7.032;2024-03-25T08:03:39;4.2;;;2.9;;
80910;SDS011;70359;51.420;7.032;2024-03-25T08:06:05;12.3;;;3.2;;
80910;SDS011;70359;51.420;7.032;2024-03-25T08:08:29;12.3;;;3.2;;
80910;SDS011;70359;51.420;7.032;2024-03-25T08:10:54;6;;;3;;
80910;SDS011;70359;51.420;7.032;2024-03-25T08:13:19;6;;;3;;
80910;SDS011;70359;51.420;7.032;2024-03-25T08:15:49;5.7;;;3;;
80910;SDS011;70359;51.420;7.032;2024-03-25T08:18:09;5.7;;;3;;
80910;SDS011;70359;51.420;7.032;2024-03-25T08:20:34;8.1;;;3;;
80910;SDS011;70359;51.420;7.032;2024-03-25T08:22:59;8.1;;;3;;
80910;SDS011;70359;51.420;7.032;2024-03-25T08:25:24;4.5;;;2.6;;
80910;SDS011;70359;51.420;7.032;2024-03-25T08:27:49;4.5;;;2.6;;
80910;SDS011;70359;51.420;7.032;2024-03-25T08:30:19;6.8;;;2.8;;
80910;SDS011;70359;51.420;7.032;2024-03-25T08:32:40;6.8;;;2.8;;
80910;SDS011;70359;51.420;7.032;2024-03-25T08:35:05;4.2;;;2.8;;
80910;SDS011;70359;51.420;7.032;2024-03-25T08:37:29;4.2;;;2.8;;
80910;SDS011;70359;51.420;7.032;2024-03-25T08:39:54;4.1;;;2.6;;
80910;SDS011;70359;51.420;7.032;2024-03-25T08:42:19;4.1;;;2.6;;
80910;SDS011;70359;51.420;7.032;2024-03-25T08:44:44;4.1;;;2.6;;
80910;SDS011;70359;51.420;7.032;2024-03-25T08:47:13;4.5;;;2.4;;
80910;SDS011;70359;51.420;7.032;2024-03-25T08:49:35;4.5;;;2.4;;
80910;SDS011;70359;51.420;7.032;2024-03-25T08:52:00;8.5;;;2.4;;
80910;SDS011;70359;51.420;7.032;2024-03-25T08:54:28;8.5;;;2.4;;
80910;SDS011;70359;51.420;7.032;2024-03-25T08:56:50;9.2;;;2.4;;
80910;SDS011;70359;51.420;7.032;2024-03-25T08:59:15;9.2;;;2.4;;
80910;SDS011;70359;51.420;7.032;2024-03-25T09:01:44;2.6;;;2;;
80910;SDS011;70359;51.420;7.032;2024-03-25T09:04:05;2.6;;;2;;
80910;SDS011;70359;51.420;7.032;2024-03-25T09:06:34;6.7;;;2.1;;
80910;SDS011;70359;51.420;7.032;2024-03-25T09:08:55;6.7;;;2.1;;
80910;SDS011;70359;51.420;7.032;2024-03-25T09:11:20;2.7;;;1.7;;
80910;SDS011;70359;51.420;7.032;2024-03-25T09:13:45;2.7;;;1.7;;
80910;SDS011;70359;51.420;7.032;2024-03-25T09:16:10;2.9;;;2.2;;
80910;SDS011;70359;51.420;7.032;2024-03-25T09:18:35;2.9;;;2.2;;
80910;SDS011;70359;51.420;7.032;2024-03-25T09:21:00;2.6;;;1.7;;
80910;SDS011;70359;51.420;7.032;2024-03-25T09:23:29;2.6;;;1.7;;
80910;SDS011;70359;51.420;7.032;2024-03-25T09:25:59;8.4;;;1.9;;
80910;SDS011;70359;51.420;7.032;2024-03-25T09:28:19;8.4;;;1.9;;
80910;SDS011;70359;51.420;7.032;2024-03-25T09:30:40;2.9;;;1.3;;
80910;SDS011;70359;51.420;7.032;2024-03-25T09:33:05;2.9;;;1.3;;
80910;SDS011;70359;51.420;7.032;2024-03-25T09:35:30;2.9;;;1.8;;
80910;SDS011;70359;51.420;7.032;2024-03-25T09:37:55;2.9;;;1.8;;
80910;SDS011;70359;51.420;7.032;2024-03-25T09:40:20;2.7;;;1.6;;
80910;SDS011;70359;51.420;7.032;2024-03-25T09:42:47;2.7;;;1.6;;
80910;SDS011;70359;51.420;7.032;2024-03-25T09:45:10;2.4;;;1.6;;
80910;SDS011;70359;51.420;7.032;2024-03-25T09:47:35;2.4;;;1.6;;
80910;SDS011;70359;51.420;7.032;2024-03-25T09:50:02;5.9;;;2.1;;
80910;SDS011;70359;51.420;7.032;2024-03-25T09:52:25;5.9;;;2.1;;
80910;SDS011;70359;51.420;7.032;2024-03-25T09:54:54;5.9;;;2.1;;
80910;SDS011;70359;51.420;7.032;2024-03-25T09:57:15;4.8;;;1.7;;
80910;SDS011;70359;51.420;7.032;2024-03-25T09:59:40;4.8;;;1.7;;
80910;SDS011;70359;51.420;7.032;2024-03-25T10:02:05;2.5;;;1.6;;
80910;SDS011;70359;51.420;7.032;2024-03-25T10:04:30;2.5;;;1.6;;
80910;SDS011;70359;51.420;7.032;2024-03-25T10:06:55;8.7;;;1.5;;
80910;SDS011;70359;51.420;7.032;2024-03-25T10:09:22;8.7;;;1.5;;
80910;SDS011;70359;51.420;7.032;2024-03-25T10:11:46;3.9;;;1.6;;
80910;SDS011;70359;51.420;7.032;2024-03-25T10:14:10;3.9;;;1.6;;
80910;SDS011;70359;51.420;7.032;2024-03-25T10:16:39;2.6;;;1.7;;
80910;SDS011;70359;51.420;7.032;2024-03-25T10:19:04;2.6;;;1.7;;
80910;SDS011;70359;51.420;7.032;2024-03-25T10:21:29;8.7;;;1.6;;
80910;SDS011;70359;51.420;7.032;2024-03-25T10:23:50;8.7;;;1.6;;
80910;SDS011;70359;51.420;7.032;2024-03-25T10:26:24;3;;;1.7;;
80910;SDS011;70359;51.420;7.032;2024-03-25T10:28:40;3;;;1.7;;
80910;SDS011;70359;51.420;7.032;2024-03-25T10:31:07;3.3;;;1.5;;
80910;SDS011;70359;51.420;7.032;2024-03-25T10:33:30;3.3;;;1.5;;
80910;SDS011;70359;51.420;7.032;2024-03-25T10:36:00;2.9;;;1.5;;
80910;SDS011;70359;51.420;7.032;2024-03-25T10:38:20;2.9;;;1.5;;
80910;SDS011;70359;51.420;7.032;2024-03-25T10:40:45;4.5;;;1.9;;
80910;SDS011;70359;51.420;7.032;2024-03-25T10:43:11;4.5;;;1.9;;
80910;SDS011;70359;51.420;7.032;2024-03-25T10:45:38;3.7;;;1.7;;
80910;SDS011;70359;51.420;7.032;2024-03-25T10:48:07;3.7;;;1.7;;
80910;SDS011;70359;51.420;7.032;2024-03-25T10:50:28;2.9;;;1.4;;
80910;SDS011;70359;51.420;7.032;2024-03-25T10:52:51;2.9;;;1.4;;
80910;SDS011;70359;51.420;7.032;2024-03-25T10:55:15;3.5;;;1.7;;
80910;SDS011;70359;51.420;7.032;2024-03-25T10:57:44;3.5;;;1.7;;
80910;SDS011;70359;51.420;7.032;2024-03-25T11:00:10;2.4;;;1.4;;
80910;SDS011;70359;51.420;7.032;2024-03-25T11:02:30;2.4;;;1.4;;
80910;SDS011;70359;51.420;7.032;2024-03-25T11:04:57;2.1;;;1.4;;
80910;SDS011;70359;51.420;7.032;2024-03-25T11:07:29;2.1;;;1.4;;
80910;SDS011;70359;51.420;7.032;2024-03-25T11:09:45;2.1;;;1.4;;
80910;SDS011;70359;51.420;7.032;2024-03-25T11:12:11;4.5;;;1.4;;
80910;SDS011;70359;51.420;7.032;2024-03-25T11:14:35;4.5;;;1.4;;
80910;SDS011;70359;51.420;7.032;2024-03-25T11:17:00;8.1;;;1.4;;
80910;SDS011;70359;51.420;7.032;2024-03-25T11:19:26;8.1;;;1.4;;
80910;SDS011;70359;51.420;7.032;2024-03-25T11:21:50;1.8;;;1.1;;
80910;SDS011;70359;51.420;7.032;2024-03-25T11:24:15;1.8;;;1.1;;
80910;SDS011;70359;51.420;7.032;2024-03-25T11:26:47;2;;;1.1;;
80910;SDS011;70359;51.420;7.032;2024-03-25T11:29:09;2;;;1.1;;
80910;SDS011;70359;51.420;7.032;2024-03-25T11:31:32;2.5;;;1.6;;
80910;SDS011;70359;51.420;7.032;2024-03-25T11:33:55;2.5;;;1.6;;
80910;SDS011;70359;51.420;7.032;2024-03-25T11:36:20;1.3;;;1.2;;
80910;SDS011;70359;51.420;7.032;2024-03-25T11:38:45;1.3;;;1.2;;
80910;SDS011;70359;51.420;7.032;2024-03-25T11:41:10;3;;;1.1;;
80910;SDS011;70359;51.420;7.032;2024-03-25T11:43:36;3;;;1.1;;
80910;SDS011;70359;51.420;7.032;2024-03-25T11:46:00;6.7;;;1.6;;
80910;SDS011;70359;51.420;7.032;2024-03-25T11:48:25;6.7;;;1.6;;
80910;SDS011;70359;51.420;7.032;2024-03-25T11:50:50;1.5;;;1.1;;
80910;SDS011;70359;51.420;7.032;2024-03-25T11:53:16;1.5;;;1.1;;
80910;SDS011;70359;51.420;7.032;2024-03-25T11:55:40;2.2;;;1.2;;
80910;SDS011;70359;51.420;7.032;2024-03-25T11:58:05;2.2;;;1.2;;
80910;SDS011;70359;51.420;7.032;2024-03-25T12:00:30;1.8;;;1.4;;
80910;SDS011;70359;51.420;7.032;2024-03-25T12:02:59;1.8;;;1.4;;
80910;SDS011;70359;51.420;7.032;2024-03-25T12:05:20;1.5;;;1;;
80910;SDS011;70359;51.420;7.032;2024-03-25T12:07:45;1.5;;;1;;
80910;SDS011;70359;51.420;7.032;2024-03-25T12:10:10;2.1;;;1;;
80910;SDS011;70359;51.420;7.032;2024-03-25T12:12:36;2.1;;;1;;
80910;SDS011;70359;51.420;7.032;2024-03-25T12:15:05;1.4;;;1;;
80910;SDS011;70359;51.420;7.032;2024-03-25T12:17:25;1.4;;;1;;
80910;SDS011;70359;51.420;7.032;2024-03-25T12:20:06;1.4;;;1;;
80910;SDS011;70359;51.420;7.032;2024-03-25T12:22:16;1.1;;;0.7;;
80910;SDS011;70359;51.420;7.032;2024-03-25T12:24:40;1.1;;;0.7;;
80910;SDS011;70359;51.420;7.032;2024-03-25T12:27:05;1.2;;;1;;
80910;SDS011;70359;51.420;7.032;2024-03-25T12:29:34;1.2;;;1;;
80910;SDS011;70359;51.420;7.032;2024-03-25T12:31:58;4.8;;;1.6;;
80910;SDS011;70359;51.420;7.032;2024-03-25T12:34:20;4.8;;;1.6;;
80910;SDS011;70359;51.420;7.032;2024-03-25T12:36:45;1.7;;;1;;
80910;SDS011;70359;51.420;7.032;2024-03-25T12:39:14;1.7;;;1;;
80910;SDS011;70359;51.420;7.032;2024-03-25T12:41:35;4.3;;;1.1;;
80910;SDS011;70359;51.420;7.032;2024-03-25T12:44:04;4.3;;;1.1;;
80910;SDS011;70359;51.420;7.032;2024-03-25T12:46:29;1.8;;;1;;
80910;SDS011;70359;51.420;7.032;2024-03-25T12:48:50;1.8;;;1;;
80910;SDS011;70359;51.420;7.032;2024-03-25T12:51:15;1.3;;;0.7;;
80910;SDS011;70359;51.420;7.032;2024-03-25T12:53:40;1.3;;;0.7;;
80910;SDS011;70359;51.420;7.032;2024-03-25T12:56:05;1.3;;;0.9;;
80910;SDS011;70359;51.420;7.032;2024-03-25T12:58:30;1.3;;;0.9;;
80910;SDS011;70359;51.420;7.032;2024-03-25T13:00:55;2.9;;;1.5;;
80910;SDS011;70359;51.420;7.032;2024-03-25T13:03:24;2.9;;;1.5;;
80910;SDS011;70359;51.420;7.032;2024-03-25T13:05:49;1.2;;;1.1;;
80910;SDS011;70359;51.420;7.032;2024-03-25T13:08:15;1.2;;;1.1;;
80910;SDS011;70359;51.420;7.032;2024-03-25T13:10:35;1.4;;;1;;
80910;SDS011;70359;51.420;7.032;2024-03-25T13:13:01;1.4;;;1;;
80910;SDS011;70359;51.420;7.032;2024-03-25T13:15:25;3.6;;;1.3;;
80910;SDS011;70359;51.420;7.032;2024-03-25T13:17:50;3.6;;;1.3;;
80910;SDS011;70359;51.420;7.032;2024-03-25T13:20:15;2.5;;;1.4;;
80910;SDS011;70359;51.420;7.032;2024-03-25T13:22:40;2.5;;;1.4;;
80910;SDS011;70359;51.420;7.032;2024-03-25T13:25:06;2.8;;;1.3;;
80910;SDS011;70359;51.420;7.032;2024-03-25T13:27:30;2.8;;;1.3;;
80910;SDS011;70359;51.420;7.032;2024-03-25T13:29:55;2.8;;;1.3;;
80910;SDS011;70359;51.420;7.032;2024-03-25T13:32:20;1.8;;;1.1;;
80910;SDS011;70359;51.420;7.032;2024-03-25T13:34:45;1.8;;;1.1;;
80910;SDS011;70359;51.420;7.032;2024-03-25T13:37:11;1.6;;;1;;
80910;SDS011;70359;51.420;7.032;2024-03-25T13:39:35;1.6;;;1;;
80910;SDS011;70359;51.420;7.032;2024-03-25T13:42:00;1.4;;;1;;
80910;SDS011;70359;51.420;7.032;2024-03-25T13:44:25;1.4;;;1;;
80910;SDS011;70359;51.420;7.032;2024-03-25T13:46:50;1.4;;;1;;
80910;SDS011;70359;51.420;7.032;2024-03-25T13:49:15;1.4;;;1;;
80910;SDS011;70359;51.420;7.032;2024-03-25T13:51:40;1;;;0.7;;
80910;SDS011;70359;51.420;7.032;2024-03-25T13:54:05;1;;;0.7;;
80910;SDS011;70359;51.420;7.032;2024-03-25T13:56:30;1.9;;;1;;
80910;SDS011;70359;51.420;7.032;2024-03-25T13:58:55;1.9;;;1;;
80910;SDS011;70359;51.420;7.032;2024-03-25T14:01:20;1.7;;;1.2;;
80910;SDS011;70359;51.420;7.032;2024-03-25T14:03:45;1.7;;;1.2;;
80910;SDS011;70359;51.420;7.032;2024-03-25T14:06:10;1.1;;;1;;
80910;SDS011;70359;51.420;7.032;2024-03-25T14:08:35;1.1;;;1;;
80910;SDS011;70359;51.420;7.032;2024-03-25T14:11:02;1.7;;;1.2;;
80910;SDS011;70359;51.420;7.032;2024-03-25T14:13:25;1.7;;;1.2;;
80910;SDS011;70359;51.420;7.032;2024-03-25T14:15:52;2.1;;;1.2;;
80910;SDS011;70359;51.420;7.032;2024-03-25T14:18:15;2.1;;;1.2;;
80910;SDS011;70359;51.420;7.032;2024-03-25T14:20:40;2.9;;;1.2;;
80910;SDS011;70359;51.420;7.032;2024-03-25T14:23:05;2.9;;;1.2;;
80910;SDS011;70359;51.420;7.032;2024-03-25T14:25:30;1.6;;;0.9;;
80910;SDS011;70359;51.420;7.032;2024-03-25T14:27:55;1.6;;;0.9;;
80910;SDS011;70359;51.420;7.032;2024-03-25T14:30:20;1.8;;;1.3;;
80910;SDS011;70359;51.420;7.032;2024-03-25T14:32:49;1.8;;;1.3;;
80910;SDS011;70359;51.420;7.032;2024-03-25T14:35:10;1.4;;;1;;
80910;SDS011;70359;51.420;7.032;2024-03-25T14:37:35;1.4;;;1;;
80910;SDS011;70359;51.420;7.032;2024-03-25T14:40:00;1.4;;;1;;
80910;SDS011;70359;51.420;7.032;2024-03-25T14:42:25;1.3;;;0.9;;
80910;SDS011;70359;51.420;7.032;2024-03-25T14:44:50;1.3;;;0.9;;
80910;SDS011;70359;51.420;7.032;2024-03-25T14:47:15;1.5;;;0.9;;
80910;SDS011;70359;51.420;7.032;2024-03-25T14:49:40;1.5;;;0.9;;
80910;SDS011;70359;51.420;7.032;2024-03-25T14:52:05;1.4;;;1.2;;
80910;SDS011;70359;51.420;7.032;2024-03-25T14:54:37;1.4;;;1.2;;
80910;SDS011;70359;51.420;7.032;2024-03-25T14:56:55;4.9;;;1.2;;
80910;SDS011;70359;51.420;7.032;2024-03-25T14:59:20;4.9;;;1.2;;
80910;SDS011;70359;51.420;7.032;2024-03-25T15:01:49;1.6;;;1.1;;
80910;SDS011;70359;51.420;7.032;2024-03-25T15:04:10;1.6;;;1.1;;
80910;SDS011;70359;51.420;7.032;2024-03-25T15:06:39;2.2;;;1.2;;